Time;durP1;ratioP1;P1;durP2;ratioP2;P2;SDS_P1;SDS_P2;PMS_P1;PMS_P2;Temp;Humidity;BMP_temperature;BMP_pressure;BME280_temperature;BME280_humidity;BME280_pressure;Samples;Min_cycle;Max_cycle;Signal;HPM_P1;HPM_P2
2023/02/03 00:00:31;;;;;;;4.63;2.25;;;;;;;;;;6341427;22;20150;-61
2023/02/03 00:02:57;;;;;;;4.43;1.83;;;;;;;;;;6341752;22;20142;-60
2023/02/03 00:05:23;;;;;;;6.55;2.33;;;;;;;;;;6340330;22;20233;-58
2023/02/03 00:07:49;;;;;;;4.43;2.28;;;;;;;;;;6341745;22;20231;-60
2023/02/03 00:10:20;;;;;;;6.72;2.10;;;;;;;;;;6341528;22;20157;-60
2023/02/03 00:12:46;;;;;;;6.25;2.22;;;;;;;;;;6341550;22;20541;-60
2023/02/03 00:15:12;;;;;;;7.40;2.40;;;;;;;;;;6342162;22;20211;-59
2023/02/03 00:17:38;;;;;;;6.30;2.60;;;;;;;;;;6342123;22;20146;-58
2023/02/03 00:20:04;;;;;;;4.72;2.60;;;;;;;;;;6342089;22;20439;-59
2023/02/03 00:22:30;;;;;;;5.63;2.85;;;;;;;;;;6341356;22;20135;-56
2023/02/03 00:24:56;;;;;;;7.97;2.83;;;;;;;;;;6341248;22;20279;-60
2023/02/03 00:27:22;;;;;;;8.00;2.85;;;;;;;;;;6341214;22;20146;-61
2023/02/03 00:29:47;;;;;;;5.65;2.55;;;;;;;;;;6341678;22;20134;-61
2023/02/03 00:32:13;;;;;;;3.90;2.90;;;;;;;;;;6341456;22;20166;-60
2023/02/03 00:34:39;;;;;;;5.55;2.80;;;;;;;;;;6341369;22;20546;-59
2023/02/03 00:37:05;;;;;;;7.13;2.97;;;;;;;;;;6341514;22;20166;-61
2023/02/03 00:39:31;;;;;;;6.03;2.90;;;;;;;;;;6341754;22;20424;-57
2023/02/03 00:41:57;;;;;;;4.60;2.25;;;;;;;;;;6341385;22;20138;-59
2023/02/03 00:44:23;;;;;;;5.43;2.78;;;;;;;;;;6341690;22;20152;-59
2023/02/03 00:46:49;;;;;;;6.60;2.90;;;;;;;;;;6342086;22;20161;-61
2023/02/03 00:49:15;;;;;;;5.07;2.67;;;;;;;;;;6342267;22;20142;-58
2023/02/03 00:51:41;;;;;;;8.25;3.20;;;;;;;;;;6342698;22;20215;-59
2023/02/03 00:54:07;;;;;;;4.05;2.42;;;;;;;;;;6343076;22;20190;-59
2023/02/03 00:56:33;;;;;;;3.53;2.75;;;;;;;;;;6342495;22;20204;-60
2023/02/03 00:58:59;;;;;;;5.05;2.90;;;;;;;;;;6342484;22;20193;-60
2023/02/03 01:01:26;;;;;;;4.75;2.88;;;;;;;;;;6343156;22;20146;-59
2023/02/03 01:03:53;;;;;;;4.30;2.40;;;;;;;;;;6342683;22;20227;-61
2023/02/03 01:06:20;;;;;;;4.70;2.80;;;;;;;;;;6341379;22;20150;-60
2023/02/03 01:08:46;;;;;;;3.70;2.15;;;;;;;;;;6341001;22;20138;-61
2023/02/03 01:11:13;;;;;;;3.47;2.10;;;;;;;;;;6342453;22;20169;-60
2023/02/03 01:13:39;;;;;;;3.00;1.90;;;;;;;;;;6341447;22;20154;-59
2023/02/03 01:16:09;;;;;;;3.00;1.80;;;;;;;;;;6341448;22;20162;-61
2023/02/03 01:18:35;;;;;;;4.75;2.08;;;;;;;;;;6341710;22;20138;-62
2023/02/03 01:21:05;;;;;;;2.65;1.98;;;;;;;;;;6341041;22;20154;-61
2023/02/03 01:23:31;;;;;;;2.70;1.65;;;;;;;;;;6341381;22;20146;-61
2023/02/03 01:26:01;;;;;;;3.42;1.80;;;;;;;;;;6341211;22;20577;-60
2023/02/03 01:28:27;;;;;;;2.42;1.85;;;;;;;;;;6341132;22;20204;-61
2023/02/03 01:30:53;;;;;;;2.53;1.90;;;;;;;;;;6341055;22;20174;-61
2023/02/03 01:33:19;;;;;;;1.85;1.48;;;;;;;;;;6341051;22;20345;-61
2023/02/03 01:35:44;;;;;;;4.47;1.75;;;;;;;;;;6341149;22;20145;-61
2023/02/03 01:38:10;;;;;;;2.17;1.50;;;;;;;;;;6342467;22;20185;-62
2023/02/03 01:40:42;;;;;;;1.75;1.30;;;;;;;;;;6342880;22;20229;-62
2023/02/03 01:43:09;;;;;;;2.45;1.50;;;;;;;;;;6342941;22;20144;-60
2023/02/03 01:45:35;;;;;;;2.08;1.38;;;;;;;;;;6342877;22;20494;-61
2023/02/03 01:48:01;;;;;;;2.10;1.40;;;;;;;;;;6342742;22;20146;-61
2023/02/03 01:50:30;;;;;;;1.70;1.30;;;;;;;;;;6342763;22;20158;-59
2023/02/03 01:52:58;;;;;;;3.13;1.10;;;;;;;;;;6342850;22;20146;-59
2023/02/03 01:55:26;;;;;;;3.58;1.50;;;;;;;;;;6342649;22;20139;-61
2023/02/03 01:57:55;;;;;;;2.60;1.88;;;;;;;;;;6342783;22;20229;-61
2023/02/03 02:00:21;;;;;;;3.20;1.40;;;;;;;;;;6342749;22;20153;-59
2023/02/03 02:02:48;;;;;;;2.47;1.60;;;;;;;;;;6342715;22;20165;-61
2023/02/03 02:05:17;;;;;;;2.80;1.27;;;;;;;;;;6342471;22;20139;-60
2023/02/03 02:07:44;;;;;;;2.17;1.27;;;;;;;;;;6342582;22;20142;-60
2023/02/03 02:10:10;;;;;;;1.67;1.00;;;;;;;;;;6342285;22;20445;-61
2023/02/03 02:12:36;;;;;;;1.30;1.08;;;;;;;;;;6343161;22;20242;-61
2023/02/03 02:15:03;;;;;;;1.88;1.30;;;;;;;;;;6342537;22;20148;-61
2023/02/03 02:17:53;;;;;;;1.75;0.95;;;;;;;;;;6342099;22;20553;-62
2023/02/03 02:20:19;;;;;;;2.58;1.10;;;;;;;;;;6342682;22;20135;-60
2023/02/03 02:22:48;;;;;;;1.00;0.73;;;;;;;;;;6342189;22;20580;-61
2023/02/03 02:25:33;;;;;;;1.70;0.75;;;;;;;;;;6342138;22;20138;-62
2023/02/03 02:28:10;;;;;;;2.08;1.00;;;;;;;;;;6342008;22;20150;-62
2023/02/03 02:30:55;;;;;;;2.85;1.05;;;;;;;;;;6342355;22;20288;-59
2023/02/03 02:33:32;;;;;;;2.15;0.90;;;;;;;;;;6342951;22;20141;-59
2023/02/03 02:36:21;;;;;;;1.70;0.90;;;;;;;;;;6350734;22;20138;-59
2023/02/03 02:38:57;;;;;;;0.88;0.80;;;;;;;;;;6354286;22;20161;-61
2023/02/03 02:41:29;;;;;;;2.25;1.10;;;;;;;;;;6346073;22;20141;-62
2023/02/03 02:44:07;;;;;;;0.82;0.80;;;;;;;;;;6342496;22;20152;-60
2023/02/03 02:46:42;;;;;;;1.65;1.10;;;;;;;;;;6342423;22;20165;-62
2023/02/03 02:49:14;;;;;;;0.88;0.85;;;;;;;;;;6342436;22;20517;-61
2023/02/03 02:51:42;;;;;;;1.33;1.00;;;;;;;;;;6342081;22;20158;-59
2023/02/03 02:54:13;;;;;;;1.20;1.02;;;;;;;;;;6342279;22;20161;-60
2023/02/03 02:56:39;;;;;;;2.25;1.40;;;;;;;;;;6342392;22;20136;-61
2023/02/03 02:59:06;;;;;;;1.58;1.33;;;;;;;;;;6342361;22;20149;-61
2023/02/03 03:01:32;;;;;;;1.20;1.10;;;;;;;;;;6342285;22;20138;-61
2023/02/03 03:04:00;;;;;;;2.50;1.40;;;;;;;;;;6341724;22;20455;-61
2023/02/03 03:06:30;;;;;;;1.98;1.23;;;;;;;;;;6342380;22;20146;-61
2023/02/03 03:09:15;;;;;;;1.40;1.23;;;;;;;;;;6342125;22;20138;-61
2023/02/03 03:11:44;;;;;;;1.77;1.40;;;;;;;;;;6343685;22;20161;-61
2023/02/03 03:14:13;;;;;;;2.55;1.00;;;;;;;;;;6352613;22;20106;-60
2023/02/03 03:16:42;;;;;;;2.75;1.52;;;;;;;;;;6357883;22;20149;-60
2023/02/03 03:19:29;;;;;;;1.90;1.60;;;;;;;;;;6344955;22;20148;-60
2023/02/03 03:21:57;;;;;;;2.50;1.70;;;;;;;;;;6343783;22;20202;-58
2023/02/03 03:24:25;;;;;;;2.55;1.85;;;;;;;;;;6343124;22;20146;-60
2023/02/03 03:26:51;;;;;;;3.45;1.67;;;;;;;;;;6344264;22;20149;-61
2023/02/03 03:29:24;;;;;;;3.03;2.10;;;;;;;;;;6346841;22;20146;-61
2023/02/03 03:31:50;;;;;;;2.88;1.80;;;;;;;;;;6347287;22;20249;-61
2023/02/03 03:34:17;;;;;;;2.88;1.90;;;;;;;;;;6345539;22;20137;-61
2023/02/03 03:37:02;;;;;;;2.75;2.03;;;;;;;;;;6345795;22;20146;-60
2023/02/03 03:39:27;;;;;;;3.17;1.90;;;;;;;;;;6343952;22;20168;-61
2023/02/03 03:41:59;;;;;;;3.58;2.60;;;;;;;;;;6343618;22;20215;-60
2023/02/03 03:44:29;;;;;;;4.88;2.38;;;;;;;;;;6342522;22;20221;-60
2023/02/03 03:47:03;;;;;;;3.20;2.50;;;;;;;;;;6342928;22;20172;-60
2023/02/03 03:49:31;;;;;;;2.90;2.30;;;;;;;;;;6342107;22;20134;-59
2023/02/03 03:52:00;;;;;;;4.18;2.60;;;;;;;;;;6342054;22;20170;-60
2023/02/03 03:54:29;;;;;;;4.70;3.10;;;;;;;;;;6342069;22;20549;-60
2023/02/03 03:57:01;;;;;;;8.55;3.30;;;;;;;;;;6342346;22;20142;-60
2023/02/03 03:59:30;;;;;;;5.60;3.10;;;;;;;;;;6342093;22;20146;-61
2023/02/03 04:01:56;;;;;;;6.93;4.05;;;;;;;;;;6341447;22;20142;-61
2023/02/03 04:04:25;;;;;;;5.30;3.92;;;;;;;;;;6342118;22;20146;-61
2023/02/03 04:06:53;;;;;;;5.57;3.78;;;;;;;;;;6342419;22;20138;-60
2023/02/03 04:09:19;;;;;;;7.22;4.10;;;;;;;;;;6343528;22;20142;-60
2023/02/03 04:12:00;;;;;;;9.10;4.00;;;;;;;;;;6342798;22;20206;-59
2023/02/03 04:14:26;;;;;;;7.72;4.95;;;;;;;;;;6341674;22;20130;-59
2023/02/03 04:16:52;;;;;;;7.20;4.65;;;;;;;;;;6341914;22;20283;-59
2023/02/03 04:19:18;;;;;;;8.63;4.30;;;;;;;;;;6341942;22;20537;-60
2023/02/03 04:21:44;;;;;;;7.25;4.28;;;;;;;;;;6342337;22;20145;-59
2023/02/03 04:24:10;;;;;;;8.15;4.82;;;;;;;;;;6341564;22;20189;-60
2023/02/03 04:26:36;;;;;;;7.57;4.93;;;;;;;;;;6342421;22;20169;-60
2023/02/03 04:29:02;;;;;;;10.30;4.53;;;;;;;;;;6341181;22;20145;-58
2023/02/03 04:31:28;;;;;;;8.00;4.75;;;;;;;;;;6341228;22;20166;-59
2023/02/03 04:33:54;;;;;;;11.18;4.50;;;;;;;;;;6341566;22;20229;-60
2023/02/03 04:36:20;;;;;;;9.05;4.53;;;;;;;;;;6341802;22;20164;-61
2023/02/03 04:38:48;;;;;;;7.05;4.35;;;;;;;;;;6341102;22;20154;-60
2023/02/03 04:41:14;;;;;;;9.48;3.90;;;;;;;;;;6341628;22;20142;-61
2023/02/03 04:43:40;;;;;;;6.93;3.67;;;;;;;;;;6340985;22;20454;-61
2023/02/03 04:46:06;;;;;;;6.53;3.47;;;;;;;;;;6341430;22;20138;-58
2023/02/03 04:48:32;;;;;;;8.80;3.13;;;;;;;;;;6341381;22;20492;-58
2023/02/03 04:51:02;;;;;;;4.82;2.72;;;;;;;;;;6341434;22;20165;-58
2023/02/03 04:53:28;;;;;;;3.85;2.90;;;;;;;;;;6341639;22;20450;-58
2023/02/03 04:55:54;;;;;;;4.15;2.42;;;;;;;;;;6341515;22;20162;-59
2023/02/03 04:58:20;;;;;;;5.88;2.35;;;;;;;;;;6341531;22;20150;-59
2023/02/03 05:00:46;;;;;;;5.70;2.20;;;;;;;;;;6340449;22;20151;-60
2023/02/03 05:03:11;;;;;;;7.88;2.40;;;;;;;;;;6341209;22;20223;-61
2023/02/03 05:05:37;;;;;;;7.95;2.67;;;;;;;;;;6341298;22;20146;-60
2023/02/03 05:08:03;;;;;;;8.23;2.55;;;;;;;;;;6340987;22;20169;-61
2023/02/03 05:10:29;;;;;;;5.65;2.50;;;;;;;;;;6340656;22;20146;-61
2023/02/03 05:12:56;;;;;;;6.85;2.10;;;;;;;;;;6343311;22;20138;-61
2023/02/03 05:15:21;;;;;;;6.15;2.45;;;;;;;;;;6341881;22;20576;-60
2023/02/03 05:17:51;;;;;;;4.30;1.50;;;;;;;;;;6343035;22;20134;-59
2023/02/03 05:20:17;;;;;;;4.68;1.30;;;;;;;;;;6343023;22;20177;-61
2023/02/03 05:22:43;;;;;;;5.32;1.75;;;;;;;;;;6343264;22;20219;-60
2023/02/03 05:25:09;;;;;;;2.47;1.10;;;;;;;;;;6343036;22;20475;-60
2023/02/03 05:27:37;;;;;;;3.78;1.38;;;;;;;;;;6342938;22;20145;-61
2023/02/03 05:30:03;;;;;;;6.13;1.50;;;;;;;;;;6351045;22;20525;-60
2023/02/03 05:32:29;;;;;;;2.08;1.30;;;;;;;;;;6359475;22;20229;-60
2023/02/03 05:34:55;;;;;;;6.00;1.50;;;;;;;;;;6355510;22;20142;-60
2023/02/03 05:37:23;;;;;;;5.18;1.50;;;;;;;;;;6344729;22;20158;-62
2023/02/03 05:39:48;;;;;;;4.25;1.40;;;;;;;;;;6343430;22;20255;-62
2023/02/03 05:42:14;;;;;;;4.22;1.83;;;;;;;;;;6343263;22;20138;-62
2023/02/03 05:44:41;;;;;;;4.95;2.13;;;;;;;;;;6342948;22;20571;-62
2023/02/03 05:47:07;;;;;;;5.70;2.33;;;;;;;;;;6342894;22;20142;-60
2023/02/03 05:49:32;;;;;;;3.85;1.60;;;;;;;;;;6342575;22;20230;-59
2023/02/03 05:51:58;;;;;;;3.60;1.90;;;;;;;;;;6342722;22;20166;-59
2023/02/03 05:54:24;;;;;;;6.47;1.92;;;;;;;;;;6343132;22;20134;-61
2023/02/03 05:56:50;;;;;;;5.35;2.13;;;;;;;;;;6342813;22;20213;-61
2023/02/03 05:59:17;;;;;;;7.55;2.13;;;;;;;;;;6342801;22;20134;-59
2023/02/03 06:01:43;;;;;;;3.83;1.75;;;;;;;;;;6342746;22;20412;-61
2023/02/03 06:04:09;;;;;;;9.15;1.80;;;;;;;;;;6342680;22;20152;-58
2023/02/03 06:06:35;;;;;;;7.43;1.63;;;;;;;;;;6342374;22;20568;-61
2023/02/03 06:09:02;;;;;;;5.35;1.70;;;;;;;;;;6342487;22;20624;-59
2023/02/03 06:11:28;;;;;;;5.13;1.40;;;;;;;;;;6342088;22;20173;-59
2023/02/03 06:13:57;;;;;;;4.03;1.40;;;;;;;;;;6342750;22;20138;-61
2023/02/03 06:16:23;;;;;;;1.90;1.10;;;;;;;;;;6342706;22;20145;-62
2023/02/03 06:18:50;;;;;;;4.28;1.30;;;;;;;;;;6342957;22;20501;-62
2023/02/03 06:21:15;;;;;;;3.80;1.00;;;;;;;;;;6342637;22;20142;-61
2023/02/03 06:23:41;;;;;;;2.92;0.82;;;;;;;;;;6342531;22;20150;-61
2023/02/03 06:26:07;;;;;;;1.25;0.90;;;;;;;;;;6342596;22;20229;-60
2023/02/03 06:28:33;;;;;;;2.65;0.93;;;;;;;;;;6342930;22;20142;-63
2023/02/03 06:31:00;;;;;;;2.10;0.93;;;;;;;;;;6342029;22;20170;-61
2023/02/03 06:33:26;;;;;;;1.92;0.80;;;;;;;;;;6342663;22;20213;-61
2023/02/03 06:35:53;;;;;;;2.78;0.70;;;;;;;;;;6343000;22;20580;-59
2023/02/03 06:38:19;;;;;;;1.55;1.10;;;;;;;;;;6342134;22;20182;-59
2023/02/03 06:40:47;;;;;;;1.52;0.85;;;;;;;;;;6342525;22;20244;-59
2023/02/03 06:43:13;;;;;;;1.13;0.73;;;;;;;;;;6342703;22;20142;-60
2023/02/03 06:45:39;;;;;;;2.28;1.08;;;;;;;;;;6342645;22;20210;-59
2023/02/03 06:48:05;;;;;;;4.20;1.30;;;;;;;;;;6342506;22;20228;-60
2023/02/03 06:50:31;;;;;;;3.42;1.10;;;;;;;;;;6342416;22;20149;-60
2023/02/03 06:52:56;;;;;;;2.40;1.02;;;;;;;;;;6342526;22;20146;-61
2023/02/03 06:55:22;;;;;;;1.60;1.02;;;;;;;;;;6342477;22;20134;-60
2023/02/03 06:57:49;;;;;;;0.90;0.70;;;;;;;;;;6343047;22;20149;-61
2023/02/03 07:00:16;;;;;;;1.27;0.70;;;;;;;;;;6345563;22;20146;-60
2023/02/03 07:02:42;;;;;;;2.25;1.00;;;;;;;;;;6347060;22;20158;-61
2023/02/03 07:05:08;;;;;;;2.72;0.80;;;;;;;;;;6347772;22;20157;-61
2023/02/03 07:07:38;;;;;;;2.40;0.80;;;;;;;;;;6351455;22;20138;-61
2023/02/03 07:10:04;;;;;;;3.03;1.00;;;;;;;;;;6354721;22;20446;-60
2023/02/03 07:12:30;;;;;;;2.38;1.10;;;;;;;;;;6354840;22;20174;-59
2023/02/03 07:14:56;;;;;;;1.98;1.17;;;;;;;;;;6351178;22;20152;-61
2023/02/03 07:17:22;;;;;;;2.30;1.20;;;;;;;;;;6349776;22;20170;-60
2023/02/03 07:19:48;;;;;;;2.40;0.82;;;;;;;;;;6348348;22;20549;-60
2023/02/03 07:22:15;;;;;;;1.25;0.80;;;;;;;;;;6344648;22;20233;-59
2023/02/03 07:24:41;;;;;;;1.60;1.02;;;;;;;;;;6342834;22;20150;-61
2023/02/03 07:27:07;;;;;;;1.58;0.60;;;;;;;;;;6342219;22;20152;-60
2023/02/03 07:29:33;;;;;;;1.63;0.75;;;;;;;;;;6342463;22;20492;-59
2023/02/03 07:32:01;;;;;;;2.50;0.82;;;;;;;;;;6341857;22;20221;-60
2023/02/03 07:34:27;;;;;;;2.13;1.00;;;;;;;;;;6341917;22;20439;-62
2023/02/03 07:36:53;;;;;;;1.25;0.73;;;;;;;;;;6341998;22;20174;-56
2023/02/03 07:39:19;;;;;;;3.70;1.02;;;;;;;;;;6341917;22;20290;-62
2023/02/03 07:41:45;;;;;;;3.83;0.90;;;;;;;;;;6341752;22;20138;-62
2023/02/03 07:44:11;;;;;;;1.02;0.60;;;;;;;;;;6342173;22;20166;-62
2023/02/03 07:46:40;;;;;;;3.00;1.15;;;;;;;;;;6341888;22;20178;-62
2023/02/03 07:49:06;;;;;;;1.65;0.82;;;;;;;;;;6341925;22;20149;-62
2023/02/03 07:51:32;;;;;;;1.75;0.70;;;;;;;;;;6341441;22;20241;-61
2023/02/03 07:53:58;;;;;;;2.00;1.13;;;;;;;;;;6341962;22;20185;-63
2023/02/03 07:56:24;;;;;;;2.57;1.00;;;;;;;;;;6341906;22;20406;-62
2023/02/03 07:58:52;;;;;;;4.00;1.10;;;;;;;;;;6341974;22;20150;-63
2023/02/03 08:01:18;;;;;;;0.98;0.75;;;;;;;;;;6341642;22;20156;-63
2023/02/03 08:03:44;;;;;;;2.95;1.05;;;;;;;;;;6341924;22;20142;-63
2023/02/03 08:06:11;;;;;;;2.70;1.08;;;;;;;;;;6342200;22;20412;-61
2023/02/03 08:08:37;;;;;;;3.35;1.00;;;;;;;;;;6341975;22;20142;-62
2023/02/03 08:11:03;;;;;;;5.90;1.25;;;;;;;;;;6366360;22;20222;-60
2023/02/03 08:13:29;;;;;;;3.67;1.02;;;;;;;;;;6341539;22;20162;-59
2023/02/03 08:15:55;;;;;;;2.60;0.98;;;;;;;;;;6341300;22;20587;-61
2023/02/03 08:18:21;;;;;;;7.28;1.20;;;;;;;;;;6341914;22;20195;-62
2023/02/03 08:20:48;;;;;;;2.58;1.10;;;;;;;;;;6346572;22;20213;-62
2023/02/03 08:23:14;;;;;;;8.32;1.70;;;;;;;;;;6352879;22;20138;-61
2023/02/03 08:25:40;;;;;;;6.68;1.40;;;;;;;;;;6346683;22;20146;-61
2023/02/03 08:28:06;;;;;;;7.75;2.47;;;;;;;;;;6342177;22;20146;-60
2023/02/03 08:30:32;;;;;;;3.67;1.45;;;;;;;;;;6341920;22;20221;-61
2023/02/03 08:32:59;;;;;;;7.15;1.80;;;;;;;;;;6341375;22;20138;-58
2023/02/03 08:35:25;;;;;;;6.78;2.00;;;;;;;;;;6341687;22;20149;-61
2023/02/03 08:37:51;;;;;;;8.57;1.95;;;;;;;;;;6340475;22;20162;-62
2023/02/03 08:40:17;;;;;;;11.48;2.20;;;;;;;;;;6341423;22;20215;-62
2023/02/03 08:42:43;;;;;;;9.70;2.08;;;;;;;;;;6341489;22;20154;-60
2023/02/03 08:45:09;;;;;;;11.70;2.35;;;;;;;;;;6341589;22;20207;-62
2023/02/03 08:47:35;;;;;;;15.10;2.67;;;;;;;;;;6341326;22;20162;-60
2023/02/03 08:50:02;;;;;;;16.95;2.90;;;;;;;;;;6341724;22;20154;-61
2023/02/03 08:52:28;;;;;;;12.02;2.30;;;;;;;;;;6341112;22;20162;-61
2023/02/03 08:54:54;;;;;;;12.50;2.28;;;;;;;;;;6341387;22;20155;-61
2023/02/03 08:57:21;;;;;;;10.63;2.30;;;;;;;;;;6342188;22;20157;-61
2023/02/03 08:59:47;;;;;;;16.35;2.80;;;;;;;;;;6341446;22;20153;-60
2023/02/03 09:02:16;;;;;;;11.82;2.63;;;;;;;;;;6341424;22;20429;-63
2023/02/03 09:04:43;;;;;;;22.20;3.65;;;;;;;;;;6341486;22;20153;-62
2023/02/03 09:07:09;;;;;;;13.13;3.20;;;;;;;;;;6341288;22;20229;-62
2023/02/03 09:09:35;;;;;;;21.25;3.85;;;;;;;;;;6341674;22;20199;-60
2023/02/03 09:12:04;;;;;;;28.20;5.43;;;;;;;;;;6341289;22;20177;-60
2023/02/03 09:14:31;;;;;;;18.35;4.20;;;;;;;;;;6341390;22;20146;-60
2023/02/03 09:16:57;;;;;;;14.30;3.42;;;;;;;;;;6341718;22;20138;-59
2023/02/03 09:19:23;;;;;;;21.67;4.15;;;;;;;;;;6341619;22;20154;-59
2023/02/03 09:21:49;;;;;;;28.27;4.97;;;;;;;;;;6341537;22;20169;-60
2023/02/03 09:24:16;;;;;;;25.52;4.75;;;;;;;;;;6341622;22;20177;-61
2023/02/03 09:26:43;;;;;;;18.67;3.95;;;;;;;;;;6341240;22;20206;-59
2023/02/03 09:29:09;;;;;;;23.98;4.68;;;;;;;;;;6341116;22;20200;-60
2023/02/03 09:31:35;;;;;;;23.48;4.10;;;;;;;;;;6340640;22;20170;-61
2023/02/03 09:34:01;;;;;;;27.27;5.05;;;;;;;;;;6341036;22;20188;-60
2023/02/03 09:36:27;;;;;;;26.48;5.47;;;;;;;;;;6341326;22;20409;-61
2023/02/03 09:38:53;;;;;;;18.45;4.55;;;;;;;;;;6340972;22;20245;-62
2023/02/03 09:41:19;;;;;;;24.27;5.95;;;;;;;;;;6340992;22;20142;-61
2023/02/03 09:43:51;;;;;;;22.63;4.43;;;;;;;;;;6341147;22;20429;-61
2023/02/03 09:46:23;;;;;;;28.52;5.35;;;;;;;;;;6341054;22;20177;-61
2023/02/03 09:48:52;;;;;;;27.48;4.65;;;;;;;;;;6340731;22;20138;-61
2023/02/03 09:51:21;;;;;;;15.80;4.47;;;;;;;;;;6340854;22;20169;-62
2023/02/03 09:53:53;;;;;;;20.27;4.88;;;;;;;;;;6340752;22;20561;-61
2023/02/03 09:56:26;;;;;;;21.58;4.35;;;;;;;;;;6340853;22;20190;-62
2023/02/03 09:58:53;;;;;;;23.65;4.70;;;;;;;;;;6342827;22;20123;-61
2023/02/03 10:01:20;;;;;;;24.98;5.43;;;;;;;;;;6342820;22;20405;-62
2023/02/03 10:03:53;;;;;;;33.42;5.50;;;;;;;;;;6342816;22;20557;-61
2023/02/03 10:06:52;;;;;;;22.45;4.93;;;;;;;;;;6342620;22;20561;-61
2023/02/03 10:09:25;;;;;;;25.98;5.13;;;;;;;;;;6217596;23;20145;-62
2023/02/03 10:11:51;;;;;;;24.95;5.43;;;;;;;;;;6217118;23;20282;-62
2023/02/03 10:14:20;;;;;;;21.35;4.65;;;;;;;;;;6217780;23;20459;-62
2023/02/03 10:17:10;;;;;;;29.15;5.32;;;;;;;;;;6217373;23;20160;-62
2023/02/03 10:19:49;;;;;;;26.90;6.53;;;;;;;;;;6216495;23;20783;-62
2023/02/03 10:22:18;;;;;;;28.20;4.88;;;;;;;;;;6217430;23;20149;-63
2023/02/03 10:24:51;;;;;;;26.55;5.45;;;;;;;;;;6220234;23;20583;-63
2023/02/03 10:27:20;;;;;;;16.85;4.63;;;;;;;;;;6221313;23;20156;-63
2023/02/03 10:29:46;;;;;;;25.48;5.75;;;;;;;;;;6217385;23;20160;-64
2023/02/03 10:32:13;;;;;;;29.02;4.85;;;;;;;;;;6222110;23;20183;-62
2023/02/03 10:34:39;;;;;;;25.35;5.03;;;;;;;;;;6220989;23;20505;-62
2023/02/03 10:37:21;;;;;;;24.85;4.68;;;;;;;;;;6218931;23;20188;-64
2023/02/03 10:39:48;;;;;;;23.08;4.90;;;;;;;;;;6220349;23;20422;-64
2023/02/03 10:42:16;;;;;;;21.80;5.50;;;;;;;;;;6216490;23;20381;-63
2023/02/03 10:44:44;;;;;;;20.98;3.78;;;;;;;;;;6273758;22;20173;-63
2023/02/03 10:47:17;;;;;;;23.42;4.60;;;;;;;;;;6348095;22;20227;-63
2023/02/03 10:49:43;;;;;;;21.30;4.93;;;;;;;;;;6348134;22;20146;-61
2023/02/03 10:52:23;;;;;;;20.60;4.63;;;;;;;;;;6354490;22;20238;-62
2023/02/03 10:54:49;;;;;;;14.13;3.53;;;;;;;;;;6350788;22;20324;-61
2023/02/03 10:57:15;;;;;;;16.38;3.40;;;;;;;;;;6354674;22;20169;-62
2023/02/03 10:59:43;;;;;;;18.88;3.33;;;;;;;;;;6344628;22;20176;-62
2023/02/03 11:02:20;;;;;;;16.17;3.72;;;;;;;;;;6344845;22;20211;-61
2023/02/03 11:04:46;;;;;;;18.77;3.75;;;;;;;;;;6344031;22;20139;-63
2023/02/03 11:07:23;;;;;;;22.52;4.20;;;;;;;;;;6342945;22;20195;-62
2023/02/03 11:09:49;;;;;;;17.00;3.70;;;;;;;;;;6341944;22;20557;-62
2023/02/03 11:12:19;;;;;;;13.20;2.58;;;;;;;;;;6345824;22;20172;-63
2023/02/03 11:14:46;;;;;;;16.25;3.08;;;;;;;;;;6345278;22;20141;-62
2023/02/03 11:17:22;;;;;;;16.65;3.15;;;;;;;;;;6343499;22;20149;-61
2023/02/03 11:19:48;;;;;;;13.15;2.72;;;;;;;;;;6342413;22;20138;-62
2023/02/03 11:22:32;;;;;;;9.15;2.70;;;;;;;;;;6342232;22;20484;-62
2023/02/03 11:24:58;;;;;;;13.98;3.30;;;;;;;;;;6342237;22;20560;-61
2023/02/03 11:27:26;;;;;;;13.98;2.90;;;;;;;;;;6342392;22;20142;-63
2023/02/03 11:30:12;;;;;;;17.20;3.10;;;;;;;;;;6341883;22;20199;-63
2023/02/03 11:32:41;;;;;;;13.32;3.22;;;;;;;;;;6320739;22;20178;-62
2023/02/03 11:35:24;;;;;;;17.02;3.20;;;;;;;;;;6341862;22;20146;-63
2023/02/03 11:37:51;;;;;;;18.38;3.38;;;;;;;;;;6341754;22;20200;-61
2023/02/03 11:40:17;;;;;;;23.70;4.15;;;;;;;;;;6341892;22;20447;-63
2023/02/03 11:42:44;;;;;;;16.92;3.70;;;;;;;;;;6343194;22;20139;-63
2023/02/03 11:45:14;;;;;;;17.70;3.28;;;;;;;;;;6341958;22;20154;-63
2023/02/03 11:47:49;;;;;;;18.05;4.00;;;;;;;;;;6342108;22;20142;-63
2023/02/03 11:50:24;;;;;;;17.80;3.67;;;;;;;;;;6342052;22;20490;-62
2023/02/03 11:52:53;;;;;;;16.27;3.85;;;;;;;;;;6341803;22;20173;-62
2023/02/03 11:55:25;;;;;;;19.85;3.08;;;;;;;;;;6341894;22;20149;-61
2023/02/03 11:57:58;;;;;;;20.13;4.78;;;;;;;;;;6342206;22;20123;-63
2023/02/03 12:00:50;;;;;;;25.30;4.55;;;;;;;;;;6342183;22;20130;-63
2023/02/03 12:03:29;;;;;;;20.55;4.32;;;;;;;;;;6342185;22;20142;-61
2023/02/03 12:06:01;;;;;;;20.77;4.50;;;;;;;;;;6342218;22;20150;-63
2023/02/03 12:09:01;;;;;;;20.92;3.92;;;;;;;;;;6342046;22;20142;-62
2023/02/03 12:11:35;;;;;;;16.02;3.80;;;;;;;;;;6216195;23;20177;-61
2023/02/03 12:14:11;;;;;;;28.98;5.30;;;;;;;;;;6216418;23;20150;-63
2023/02/03 12:17:09;;;;;;;26.40;5.20;;;;;;;;;;6216363;23;20148;-63
2023/02/03 12:19:54;;;;;;;22.02;4.25;;;;;;;;;;6167595;23;20156;-63
2023/02/03 12:22:20;;;;;;;16.60;3.90;;;;;;;;;;6216162;23;20207;-63
2023/02/03 12:24:50;;;;;;;21.50;4.22;;;;;;;;;;6216277;23;20148;-61
2023/02/03 12:27:41;;;;;;;21.38;4.25;;;;;;;;;;6216323;23;20495;-63
2023/02/03 12:30:16;;;;;;;22.13;4.22;;;;;;;;;;6216011;23;20434;-62
2023/02/03 12:32:45;;;;;;;26.27;4.72;;;;;;;;;;6191282;23;20199;-62
2023/02/03 12:35:20;;;;;;;26.25;4.85;;;;;;;;;;6216061;23;20549;-63
2023/02/03 12:38:00;;;;;;;24.25;5.03;;;;;;;;;;6216417;23;20152;-63
2023/02/03 12:40:40;;;;;;;26.27;5.78;;;;;;;;;;6216654;23;20149;-63
2023/02/03 12:43:21;;;;;;;20.58;4.28;;;;;;;;;;6216393;23;20133;-63
2023/02/03 12:46:16;;;;;;;18.38;4.32;;;;;;;;;;6216929;22;20145;-64
2023/02/03 12:48:55;;;;;;;21.95;4.45;;;;;;;;;;6315139;22;20604;-63
2023/02/03 12:51:33;;;;;;;16.63;4.05;;;;;;;;;;6341779;22;20185;-61
2023/02/03 12:54:02;;;;;;;20.30;3.65;;;;;;;;;;6342624;22;20141;-62
2023/02/03 12:56:38;;;;;;;18.92;4.32;;;;;;;;;;6342528;22;20145;-63
2023/02/03 12:59:12;;;;;;;18.60;3.60;;;;;;;;;;6341777;22;20201;-62
2023/02/03 13:01:43;;;;;;;16.55;3.58;;;;;;;;;;6340510;22;20126;-63
2023/02/03 13:04:28;;;;;;;20.45;4.55;;;;;;;;;;6340294;22;20138;-63
2023/02/03 13:07:11;;;;;;;26.40;5.10;;;;;;;;;;6340326;22;20154;-64
2023/02/03 13:09:40;;;;;;;20.10;4.10;;;;;;;;;;6340289;22;20138;-62
2023/02/03 13:12:17;;;;;;;24.60;5.00;;;;;;;;;;6340099;22;20458;-63
2023/02/03 13:15:01;;;;;;;17.75;3.67;;;;;;;;;;6339785;22;20130;-63
2023/02/03 13:17:43;;;;;;;22.35;4.40;;;;;;;;;;6339685;22;20552;-62
2023/02/03 13:20:18;;;;;;;26.95;5.05;;;;;;;;;;6339685;22;20133;-63
2023/02/03 13:22:44;;;;;;;25.25;4.78;;;;;;;;;;6339750;22;20191;-63
2023/02/03 13:25:30;;;;;;;24.27;5.10;;;;;;;;;;6340099;22;20532;-63
2023/02/03 13:28:08;;;;;;;26.30;4.97;;;;;;;;;;6340295;22;20457;-63
2023/02/03 13:30:48;;;;;;;23.13;5.13;;;;;;;;;;6364402;22;20225;-63
2023/02/03 13:33:29;;;;;;;19.70;4.43;;;;;;;;;;6341235;22;20138;-62
2023/02/03 13:36:11;;;;;;;21.60;4.00;;;;;;;;;;6341488;22;20123;-62
2023/02/03 13:38:46;;;;;;;21.83;4.18;;;;;;;;;;6341668;22;20154;-62
2023/02/03 13:41:22;;;;;;;20.02;4.28;;;;;;;;;;6341402;22;20172;-63
2023/02/03 13:43:50;;;;;;;19.58;3.63;;;;;;;;;;6341666;22;20196;-62
2023/02/03 13:46:21;;;;;;;19.42;4.57;;;;;;;;;;6341559;22;20138;-63
2023/02/03 13:48:47;;;;;;;21.50;4.82;;;;;;;;;;6341277;22;20550;-62
2023/02/03 13:51:15;;;;;;;19.13;3.95;;;;;;;;;;6340338;22;20461;-61
2023/02/03 13:53:43;;;;;;;20.95;4.57;;;;;;;;;;6341299;22;20580;-62
2023/02/03 13:56:17;;;;;;;20.73;4.53;;;;;;;;;;6341271;22;20153;-62
2023/02/03 13:58:57;;;;;;;19.13;4.55;;;;;;;;;;6341453;22;20130;-63
2023/02/03 14:01:28;;;;;;;20.08;3.97;;;;;;;;;;6349284;22;20137;-62
2023/02/03 14:03:55;;;;;;;20.58;4.47;;;;;;;;;;6351084;22;20622;-62
2023/02/03 14:06:39;;;;;;;20.63;4.10;;;;;;;;;;6345268;22;20625;-62
2023/02/03 14:09:22;;;;;;;28.45;6.00;;;;;;;;;;6343560;22;20157;-62
2023/02/03 14:11:51;;;;;;;19.92;4.75;;;;;;;;;;6342119;22;20642;-60
2023/02/03 14:14:19;;;;;;;21.40;4.55;;;;;;;;;;6343277;22;20227;-62
2023/02/03 14:16:49;;;;;;;15.52;3.95;;;;;;;;;;6343510;22;20150;-61
2023/02/03 14:19:21;;;;;;;20.42;4.10;;;;;;;;;;6342872;22;20147;-61
2023/02/03 14:22:01;;;;;;;27.83;5.07;;;;;;;;;;6341682;22;20157;-62
2023/02/03 14:24:41;;;;;;;22.60;4.43;;;;;;;;;;6341636;22;20131;-61
2023/02/03 14:27:24;;;;;;;19.38;4.55;;;;;;;;;;6341577;22;20168;-62
2023/02/03 14:30:03;;;;;;;24.33;5.20;;;;;;;;;;6346105;22;20156;-63
2023/02/03 14:32:48;;;;;;;33.95;5.57;;;;;;;;;;6357821;22;20238;-63
2023/02/03 14:35:16;;;;;;;20.48;4.28;;;;;;;;;;6353211;22;20143;-62
2023/02/03 14:37:51;;;;;;;26.55;4.97;;;;;;;;;;6353481;22;20190;-62
2023/02/03 14:40:24;;;;;;;26.42;5.07;;;;;;;;;;6347564;22;20134;-60
2023/02/03 14:43:09;;;;;;;21.17;4.55;;;;;;;;;;6345712;22;20146;-61
2023/02/03 14:45:42;;;;;;;21.92;5.15;;;;;;;;;;6344229;22;20142;-61
2023/02/03 14:48:22;;;;;;;23.42;4.95;;;;;;;;;;6342949;22;20135;-61
2023/02/03 14:50:47;;;;;;;27.70;5.90;;;;;;;;;;6342844;22;20588;-62
2023/02/03 14:53:24;;;;;;;30.38;5.05;;;;;;;;;;6342891;22;20142;-63